sensor_id;sensor_type;location;lat;lon;timestamp;P1;durP1;ratioP1;P2;durP2;ratioP2
34988;SDS011;21192;40.182;44.516;2022-09-20T03:53:30;23.88;;;6.10;;
34988;SDS011;21192;40.182;44.516;2022-09-20T04:04:57;35.67;;;7.40;;
34988;SDS011;21192;40.182;44.516;2022-09-20T04:20:59;39.88;;;8.82;;
34988;SDS011;21192;40.182;44.516;2022-09-20T04:26:32;31.23;;;7.97;;
34988;SDS011;21192;40.182;44.516;2022-09-20T04:32:00;37.92;;;9.27;;
34988;SDS011;21192;40.182;44.516;2022-09-20T04:34:36;31.05;;;9.10;;
34988;SDS011;21192;40.182;44.516;2022-09-20T04:37:26;37.42;;;9.75;;
34988;SDS011;21192;40.182;44.516;2022-09-20T04:40:41;38.92;;;8.02;;
34988;SDS011;21192;40.182;44.516;2022-09-20T05:00:21;38.78;;;9.43;;
34988;SDS011;21192;40.182;44.516;2022-09-20T05:11:09;36.92;;;9.07;;
34988;SDS011;21192;40.182;44.516;2022-09-20T05:30:33;33.03;;;7.65;;
34988;SDS011;21192;40.182;44.516;2022-09-20T05:35:42;35.35;;;8.15;;
34988;SDS011;21192;40.182;44.516;2022-09-20T05:41:44;34.50;;;7.90;;
34988;SDS011;21192;40.182;44.516;2022-09-20T06:01:40;34.15;;;9.13;;
34988;SDS011;21192;40.182;44.516;2022-09-20T06:04:22;26.42;;;8.25;;
34988;SDS011;21192;40.182;44.516;2022-09-20T06:10:04;40.78;;;9.45;;
34988;SDS011;21192;40.182;44.516;2022-09-20T06:12:37;32.35;;;8.05;;
34988;SDS011;21192;40.182;44.516;2022-09-20T06:15:13;34.65;;;8.40;;
34988;SDS011;21192;40.182;44.516;2022-09-20T06:21:00;31.02;;;8.85;;
34988;SDS011;21192;40.182;44.516;2022-09-20T06:23:34;26.80;;;8.07;;
34988;SDS011;21192;40.182;44.516;2022-09-20T06:26:05;32.90;;;9.43;;
34988;SDS011;21192;40.182;44.516;2022-09-20T06:28:37;31.27;;;8.05;;
34988;SDS011;21192;40.182;44.516;2022-09-20T06:31:11;33.38;;;8.02;;
34988;SDS011;21192;40.182;44.516;2022-09-20T06:34:11;31.52;;;8.60;;
34988;SDS011;21192;40.182;44.516;2022-09-20T06:36:35;29.00;;;8.68;;
34988;SDS011;21192;40.182;44.516;2022-09-20T06:42:21;33.10;;;9.57;;
34988;SDS011;21192;40.182;44.516;2022-09-20T06:44:47;36.03;;;9.93;;
34988;SDS011;21192;40.182;44.516;2022-09-20T06:47:13;31.25;;;9.25;;
34988;SDS011;21192;40.182;44.516;2022-09-20T06:49:40;33.03;;;8.70;;
34988;SDS011;21192;40.182;44.516;2022-09-20T06:52:15;30.27;;;8.65;;
34988;SDS011;21192;40.182;44.516;2022-09-20T06:54:46;36.08;;;9.93;;
34988;SDS011;21192;40.182;44.516;2022-09-20T06:57:15;34.55;;;9.75;;
34988;SDS011;21192;40.182;44.516;2022-09-20T06:59:43;34.63;;;8.80;;
34988;SDS011;21192;40.182;44.516;2022-09-20T07:02:09;42.78;;;11.27;;
34988;SDS011;21192;40.182;44.516;2022-09-20T07:04:35;37.25;;;10.05;;
34988;SDS011;21192;40.182;44.516;2022-09-20T07:07:02;40.30;;;10.73;;
34988;SDS011;21192;40.182;44.516;2022-09-20T07:09:30;32.92;;;10.88;;
34988;SDS011;21192;40.182;44.516;2022-09-20T07:11:56;37.38;;;10.07;;
34988;SDS011;21192;40.182;44.516;2022-09-20T07:14:25;36.95;;;10.32;;
34988;SDS011;21192;40.182;44.516;2022-09-20T07:16:52;47.17;;;10.75;;
34988;SDS011;21192;40.182;44.516;2022-09-20T07:19:18;33.05;;;10.00;;
34988;SDS011;21192;40.182;44.516;2022-09-20T07:21:44;35.38;;;11.13;;
34988;SDS011;21192;40.182;44.516;2022-09-20T07:24:10;33.53;;;9.80;;
34988;SDS011;21192;40.182;44.516;2022-09-20T07:26:39;38.15;;;10.75;;
34988;SDS011;21192;40.182;44.516;2022-09-20T07:29:18;34.90;;;10.75;;
34988;SDS011;21192;40.182;44.516;2022-09-20T07:31:46;31.48;;;10.13;;
34988;SDS011;21192;40.182;44.516;2022-09-20T07:34:14;38.80;;;10.70;;
34988;SDS011;21192;40.182;44.516;2022-09-20T07:36:45;47.75;;;11.63;;
34988;SDS011;21192;40.182;44.516;2022-09-20T07:39:13;32.60;;;9.52;;
34988;SDS011;21192;40.182;44.516;2022-09-20T07:41:39;35.38;;;9.20;;
34988;SDS011;21192;40.182;44.516;2022-09-20T07:44:05;27.58;;;8.75;;
34988;SDS011;21192;40.182;44.516;2022-09-20T07:46:49;26.33;;;8.75;;
34988;SDS011;21192;40.182;44.516;2022-09-20T07:49:19;33.55;;;9.82;;
34988;SDS011;21192;40.182;44.516;2022-09-20T07:51:46;25.88;;;8.93;;
34988;SDS011;21192;40.182;44.516;2022-09-20T07:54:24;28.10;;;9.02;;
34988;SDS011;21192;40.182;44.516;2022-09-20T07:56:51;27.33;;;8.40;;
34988;SDS011;21192;40.182;44.516;2022-09-20T07:59:17;37.33;;;10.38;;
34988;SDS011;21192;40.182;44.516;2022-09-20T08:01:43;28.50;;;9.45;;
34988;SDS011;21192;40.182;44.516;2022-09-20T08:04:10;37.05;;;11.00;;
34988;SDS011;21192;40.182;44.516;2022-09-20T08:06:38;26.75;;;8.82;;
34988;SDS011;21192;40.182;44.516;2022-09-20T08:09:06;29.65;;;7.80;;
34988;SDS011;21192;40.182;44.516;2022-09-20T08:11:32;39.30;;;9.43;;
34988;SDS011;21192;40.182;44.516;2022-09-20T08:14:00;35.03;;;8.80;;
34988;SDS011;21192;40.182;44.516;2022-09-20T08:16:28;34.25;;;9.88;;
34988;SDS011;21192;40.182;44.516;2022-09-20T08:18:55;25.17;;;8.35;;
34988;SDS011;21192;40.182;44.516;2022-09-20T08:21:24;18.55;;;7.25;;
34988;SDS011;21192;40.182;44.516;2022-09-20T08:23:51;26.35;;;9.73;;
34988;SDS011;21192;40.182;44.516;2022-09-20T08:26:19;23.80;;;7.20;;
34988;SDS011;21192;40.182;44.516;2022-09-20T08:28:52;25.52;;;8.27;;
34988;SDS011;21192;40.182;44.516;2022-09-20T08:31:21;27.98;;;8.07;;
34988;SDS011;21192;40.182;44.516;2022-09-20T08:33:49;23.55;;;7.35;;
34988;SDS011;21192;40.182;44.516;2022-09-20T08:36:18;35.13;;;8.35;;
34988;SDS011;21192;40.182;44.516;2022-09-20T08:38:46;23.17;;;7.22;;
34988;SDS011;21192;40.182;44.516;2022-09-20T08:41:20;23.92;;;7.05;;
34988;SDS011;21192;40.182;44.516;2022-09-20T08:43:52;26.90;;;8.88;;
34988;SDS011;21192;40.182;44.516;2022-09-20T08:46:42;24.50;;;7.00;;
34988;SDS011;21192;40.182;44.516;2022-09-20T08:49:09;32.95;;;8.40;;
34988;SDS011;21192;40.182;44.516;2022-09-20T08:51:40;26.65;;;9.05;;
34988;SDS011;21192;40.182;44.516;2022-09-20T08:54:09;23.15;;;7.68;;
34988;SDS011;21192;40.182;44.516;2022-09-20T08:56:40;20.23;;;6.15;;
34988;SDS011;21192;40.182;44.516;2022-09-20T08:59:19;21.38;;;6.70;;
34988;SDS011;21192;40.182;44.516;2022-09-20T09:01:46;26.08;;;6.57;;
34988;SDS011;21192;40.182;44.516;2022-09-20T09:04:17;31.77;;;7.97;;
34988;SDS011;21192;40.182;44.516;2022-09-20T09:06:49;26.45;;;6.80;;
34988;SDS011;21192;40.182;44.516;2022-09-20T09:09:20;19.90;;;7.00;;
34988;SDS011;21192;40.182;44.516;2022-09-20T09:11:49;25.23;;;6.75;;
34988;SDS011;21192;40.182;44.516;2022-09-20T09:14:30;23.90;;;5.68;;
34988;SDS011;21192;40.182;44.516;2022-09-20T09:17:13;23.15;;;5.95;;
34988;SDS011;21192;40.182;44.516;2022-09-20T09:19:43;17.83;;;6.18;;
34988;SDS011;21192;40.182;44.516;2022-09-20T09:22:29;13.68;;;5.70;;
34988;SDS011;21192;40.182;44.516;2022-09-20T09:25:08;15.63;;;4.68;;
34988;SDS011;21192;40.182;44.516;2022-09-20T09:30:38;18.10;;;5.95;;
34988;SDS011;21192;40.182;44.516;2022-09-20T09:38:20;11.27;;;3.90;;
34988;SDS011;21192;40.182;44.516;2022-09-20T09:40:57;20.55;;;5.10;;
34988;SDS011;21192;40.182;44.516;2022-09-20T09:43:29;17.98;;;5.28;;
34988;SDS011;21192;40.182;44.516;2022-09-20T09:46:16;11.88;;;4.18;;
34988;SDS011;21192;40.182;44.516;2022-09-20T09:48:45;15.00;;;5.00;;
34988;SDS011;21192;40.182;44.516;2022-09-20T09:51:18;10.50;;;4.28;;
34988;SDS011;21192;40.182;44.516;2022-09-20T09:53:45;15.98;;;5.28;;
34988;SDS011;21192;40.182;44.516;2022-09-20T09:56:19;13.65;;;4.10;;
34988;SDS011;21192;40.182;44.516;2022-09-20T10:01:51;11.35;;;3.13;;
34988;SDS011;21192;40.182;44.516;2022-09-20T10:15:27;18.10;;;6.10;;
34988;SDS011;21192;40.182;44.516;2022-09-20T10:36:35;13.13;;;3.65;;
34988;SDS011;21192;40.182;44.516;2022-09-20T10:39:33;13.75;;;3.67;;
34988;SDS011;21192;40.182;44.516;2022-09-20T11:04:36;16.15;;;5.55;;
34988;SDS011;21192;40.182;44.516;2022-09-20T11:07:20;11.40;;;3.80;;
34988;SDS011;21192;40.182;44.516;2022-09-20T11:10:01;17.63;;;5.35;;
34988;SDS011;21192;40.182;44.516;2022-09-20T11:12:38;15.48;;;4.32;;
34988;SDS011;21192;40.182;44.516;2022-09-20T11:15:29;17.30;;;5.15;;
34988;SDS011;21192;40.182;44.516;2022-09-20T11:18:02;15.60;;;4.10;;
34988;SDS011;21192;40.182;44.516;2022-09-20T11:20:31;11.18;;;3.38;;
34988;SDS011;21192;40.182;44.516;2022-09-20T11:25:36;13.10;;;3.65;;
34988;SDS011;21192;40.182;44.516;2022-09-20T11:31:15;10.13;;;4.07;;
34988;SDS011;21192;40.182;44.516;2022-09-20T11:33:58;14.65;;;4.20;;
34988;SDS011;21192;40.182;44.516;2022-09-20T11:36:56;14.98;;;3.97;;
34988;SDS011;21192;40.182;44.516;2022-09-20T11:42:00;17.45;;;5.65;;
34988;SDS011;21192;40.182;44.516;2022-09-20T11:49:02;32.55;;;6.50;;
34988;SDS011;21192;40.182;44.516;2022-09-20T11:56:32;14.52;;;3.78;;
34988;SDS011;21192;40.182;44.516;2022-09-20T12:09:22;16.20;;;5.05;;
34988;SDS011;21192;40.182;44.516;2022-09-20T12:11:50;17.85;;;5.38;;
34988;SDS011;21192;40.182;44.516;2022-09-20T12:15:24;13.23;;;5.07;;
34988;SDS011;21192;40.182;44.516;2022-09-20T12:21:28;12.23;;;4.50;;
34988;SDS011;21192;40.182;44.516;2022-09-20T12:28:47;15.50;;;4.93;;
34988;SDS011;21192;40.182;44.516;2022-09-20T12:41:05;12.40;;;3.15;;
34988;SDS011;21192;40.182;44.516;2022-09-20T12:43:45;14.90;;;5.65;;
34988;SDS011;21192;40.182;44.516;2022-09-20T12:46:34;16.35;;;6.22;;
34988;SDS011;21192;40.182;44.516;2022-09-20T12:49:39;14.85;;;4.43;;
34988;SDS011;21192;40.182;44.516;2022-09-20T12:52:21;20.15;;;6.38;;
34988;SDS011;21192;40.182;44.516;2022-09-20T12:57:57;18.27;;;4.45;;
34988;SDS011;21192;40.182;44.516;2022-09-20T13:03:31;18.90;;;5.47;;
34988;SDS011;21192;40.182;44.516;2022-09-20T13:09:06;20.15;;;6.18;;
34988;SDS011;21192;40.182;44.516;2022-09-20T13:11:36;15.82;;;4.90;;
34988;SDS011;21192;40.182;44.516;2022-09-20T13:19:46;12.32;;;5.50;;
34988;SDS011;21192;40.182;44.516;2022-09-20T13:24:49;14.85;;;3.15;;
34988;SDS011;21192;40.182;44.516;2022-09-20T13:30:24;15.60;;;4.90;;
34988;SDS011;21192;40.182;44.516;2022-09-20T13:32:52;11.90;;;3.90;;
34988;SDS011;21192;40.182;44.516;2022-09-20T13:35:23;12.43;;;3.78;;
34988;SDS011;21192;40.182;44.516;2022-09-20T13:38:02;13.45;;;3.35;;
34988;SDS011;21192;40.182;44.516;2022-09-20T13:43:18;13.85;;;4.80;;
34988;SDS011;21192;40.182;44.516;2022-09-20T13:45:59;15.70;;;4.32;;
34988;SDS011;21192;40.182;44.516;2022-09-20T13:48:36;18.35;;;5.85;;
34988;SDS011;21192;40.182;44.516;2022-09-20T13:51:03;15.07;;;4.65;;
34988;SDS011;21192;40.182;44.516;2022-09-20T13:53:40;13.60;;;3.33;;
34988;SDS011;21192;40.182;44.516;2022-09-20T13:56:10;13.50;;;3.33;;
34988;SDS011;21192;40.182;44.516;2022-09-20T13:58:50;14.00;;;5.20;;
34988;SDS011;21192;40.182;44.516;2022-09-20T14:01:30;12.40;;;5.10;;
34988;SDS011;21192;40.182;44.516;2022-09-20T14:04:02;18.70;;;5.55;;
34988;SDS011;21192;40.182;44.516;2022-09-20T14:06:37;17.35;;;6.40;;
34988;SDS011;21192;40.182;44.516;2022-09-20T14:09:04;19.80;;;5.72;;
34988;SDS011;21192;40.182;44.516;2022-09-20T14:11:32;17.35;;;5.25;;
34988;SDS011;21192;40.182;44.516;2022-09-20T14:14:01;15.15;;;5.80;;
34988;SDS011;21192;40.182;44.516;2022-09-20T14:16:32;17.08;;;5.70;;
34988;SDS011;21192;40.182;44.516;2022-09-20T14:19:02;14.40;;;6.05;;
34988;SDS011;21192;40.182;44.516;2022-09-20T14:21:32;24.27;;;6.32;;
34988;SDS011;21192;40.182;44.516;2022-09-20T14:24:05;24.20;;;7.35;;
34988;SDS011;21192;40.182;44.516;2022-09-20T14:27:31;22.70;;;9.15;;
34988;SDS011;21192;40.182;44.516;2022-09-20T14:29:43;21.70;;;8.38;;
34988;SDS011;21192;40.182;44.516;2022-09-20T14:32:16;18.80;;;6.65;;
34988;SDS011;21192;40.182;44.516;2022-09-20T14:37:41;21.33;;;7.18;;
34988;SDS011;21192;40.182;44.516;2022-09-20T14:40:18;23.10;;;7.63;;
34988;SDS011;21192;40.182;44.516;2022-09-20T14:42:46;34.85;;;7.88;;
34988;SDS011;21192;40.182;44.516;2022-09-20T14:45:22;23.05;;;7.65;;
34988;SDS011;21192;40.182;44.516;2022-09-20T14:48:35;23.77;;;8.18;;
34988;SDS011;21192;40.182;44.516;2022-09-20T14:50:41;22.00;;;6.47;;
34988;SDS011;21192;40.182;44.516;2022-09-20T14:55:57;19.10;;;7.28;;
34988;SDS011;21192;40.182;44.516;2022-09-20T14:58:29;25.92;;;9.73;;
34988;SDS011;21192;40.182;44.516;2022-09-20T15:00:57;31.85;;;16.45;;
34988;SDS011;21192;40.182;44.516;2022-09-20T15:03:32;34.05;;;14.82;;
34988;SDS011;21192;40.182;44.516;2022-09-20T15:05:58;30.23;;;14.25;;
34988;SDS011;21192;40.182;44.516;2022-09-20T15:08:25;31.27;;;11.85;;
34988;SDS011;21192;40.182;44.516;2022-09-20T15:10:51;21.45;;;8.98;;
34988;SDS011;21192;40.182;44.516;2022-09-20T15:13:17;27.67;;;12.00;;
34988;SDS011;21192;40.182;44.516;2022-09-20T15:15:43;29.55;;;9.52;;
34988;SDS011;21192;40.182;44.516;2022-09-20T15:21:01;31.45;;;6.82;;
34988;SDS011;21192;40.182;44.516;2022-09-20T15:23:28;26.27;;;5.40;;
34988;SDS011;21192;40.182;44.516;2022-09-20T15:25:53;21.55;;;5.70;;
34988;SDS011;21192;40.182;44.516;2022-09-20T15:28:20;18.33;;;7.25;;
34988;SDS011;21192;40.182;44.516;2022-09-20T15:30:47;28.15;;;7.93;;
34988;SDS011;21192;40.182;44.516;2022-09-20T15:33:15;28.42;;;8.73;;
34988;SDS011;21192;40.182;44.516;2022-09-20T15:35:42;36.35;;;9.73;;
34988;SDS011;21192;40.182;44.516;2022-09-20T15:38:09;29.60;;;9.73;;
34988;SDS011;21192;40.182;44.516;2022-09-20T15:40:39;38.30;;;18.15;;
34988;SDS011;21192;40.182;44.516;2022-09-20T15:43:13;62.85;;;28.30;;
34988;SDS011;21192;40.182;44.516;2022-09-20T15:45:51;44.97;;;23.85;;
34988;SDS011;21192;40.182;44.516;2022-09-20T15:48:25;40.65;;;19.45;;
34988;SDS011;21192;40.182;44.516;2022-09-20T15:51:05;33.55;;;15.75;;
34988;SDS011;21192;40.182;44.516;2022-09-20T15:53:37;43.70;;;20.30;;
34988;SDS011;21192;40.182;44.516;2022-09-20T15:56:17;35.30;;;11.60;;
34988;SDS011;21192;40.182;44.516;2022-09-20T15:58:51;35.38;;;14.63;;
34988;SDS011;21192;40.182;44.516;2022-09-20T16:01:34;27.95;;;10.40;;
34988;SDS011;21192;40.182;44.516;2022-09-20T16:04:17;25.20;;;10.25;;
34988;SDS011;21192;40.182;44.516;2022-09-20T16:06:46;33.35;;;18.80;;
34988;SDS011;21192;40.182;44.516;2022-09-20T16:09:13;34.08;;;10.52;;
34988;SDS011;21192;40.182;44.516;2022-09-20T16:11:39;33.60;;;12.77;;
34988;SDS011;21192;40.182;44.516;2022-09-20T16:14:07;38.40;;;12.38;;
34988;SDS011;21192;40.182;44.516;2022-09-20T16:16:33;28.48;;;11.55;;
34988;SDS011;21192;40.182;44.516;2022-09-20T16:18:59;29.52;;;14.15;;
34988;SDS011;21192;40.182;44.516;2022-09-20T16:21:54;39.22;;;17.17;;
34988;SDS011;21192;40.182;44.516;2022-09-20T16:24:22;33.60;;;14.02;;
34988;SDS011;21192;40.182;44.516;2022-09-20T16:26:52;29.20;;;10.10;;
34988;SDS011;21192;40.182;44.516;2022-09-20T16:29:20;27.95;;;11.70;;
34988;SDS011;21192;40.182;44.516;2022-09-20T16:31:47;26.60;;;11.70;;
34988;SDS011;21192;40.182;44.516;2022-09-20T16:34:26;32.92;;;13.00;;
34988;SDS011;21192;40.182;44.516;2022-09-20T16:37:04;22.83;;;9.77;;
34988;SDS011;21192;40.182;44.516;2022-09-20T16:39:34;24.77;;;11.23;;
34988;SDS011;21192;40.182;44.516;2022-09-20T16:42:01;25.10;;;12.30;;
34988;SDS011;21192;40.182;44.516;2022-09-20T16:44:31;32.60;;;11.27;;
34988;SDS011;21192;40.182;44.516;2022-09-20T16:47:00;30.92;;;13.20;;
34988;SDS011;21192;40.182;44.516;2022-09-20T16:49:27;32.53;;;12.30;;
34988;SDS011;21192;40.182;44.516;2022-09-20T16:51:53;35.42;;;12.98;;
34988;SDS011;21192;40.182;44.516;2022-09-20T16:54:19;46.58;;;17.88;;
34988;SDS011;21192;40.182;44.516;2022-09-20T16:56:48;32.38;;;11.23;;
34988;SDS011;21192;40.182;44.516;2022-09-20T16:59:15;92.95;;;61.17;;
34988;SDS011;21192;40.182;44.516;2022-09-20T17:01:43;46.80;;;22.95;;
34988;SDS011;21192;40.182;44.516;2022-09-20T17:04:09;32.63;;;18.80;;
34988;SDS011;21192;40.182;44.516;2022-09-20T17:06:38;45.05;;;29.45;;
34988;SDS011;21192;40.182;44.516;2022-09-20T17:09:06;67.00;;;35.10;;
34988;SDS011;21192;40.182;44.516;2022-09-20T17:11:36;67.90;;;39.22;;
34988;SDS011;21192;40.182;44.516;2022-09-20T17:14:05;48.20;;;20.13;;
34988;SDS011;21192;40.182;44.516;2022-09-20T17:16:33;31.88;;;15.07;;
34988;SDS011;21192;40.182;44.516;2022-09-20T17:19:02;35.72;;;15.88;;
34988;SDS011;21192;40.182;44.516;2022-09-20T17:21:37;36.47;;;14.13;;
34988;SDS011;21192;40.182;44.516;2022-09-20T17:24:06;37.67;;;12.77;;
34988;SDS011;21192;40.182;44.516;2022-09-20T17:26:34;37.45;;;12.95;;
34988;SDS011;21192;40.182;44.516;2022-09-20T17:29:03;33.83;;;12.25;;
34988;SDS011;21192;40.182;44.516;2022-09-20T17:31:31;39.67;;;12.38;;
34988;SDS011;21192;40.182;44.516;2022-09-20T17:33:59;31.35;;;13.10;;
34988;SDS011;21192;40.182;44.516;2022-09-20T17:36:29;31.42;;;12.52;;
34988;SDS011;21192;40.182;44.516;2022-09-20T17:38:57;32.33;;;11.63;;
34988;SDS011;21192;40.182;44.516;2022-09-20T17:41:25;39.50;;;13.18;;
34988;SDS011;21192;40.182;44.516;2022-09-20T17:43:52;33.97;;;12.07;;
34988;SDS011;21192;40.182;44.516;2022-09-20T17:46:20;30.75;;;11.02;;
34988;SDS011;21192;40.182;44.516;2022-09-20T17:48:53;29.02;;;12.43;;
34988;SDS011;21192;40.182;44.516;2022-09-20T17:51:30;29.45;;;13.98;;
34988;SDS011;21192;40.182;44.516;2022-09-20T17:54:01;32.30;;;13.85;;
34988;SDS011;21192;40.182;44.516;2022-09-20T17:56:28;29.25;;;11.00;;
34988;SDS011;21192;40.182;44.516;2022-09-20T17:58:58;34.95;;;12.52;;
34988;SDS011;21192;40.182;44.516;2022-09-20T18:01:29;36.25;;;12.27;;
34988;SDS011;21192;40.182;44.516;2022-09-20T18:03:57;26.67;;;10.50;;
34988;SDS011;21192;40.182;44.516;2022-09-20T18:06:43;36.75;;;11.18;;
34988;SDS011;21192;40.182;44.516;2022-09-20T18:09:13;25.92;;;9.48;;
34988;SDS011;21192;40.182;44.516;2022-09-20T18:11:41;27.70;;;9.13;;
34988;SDS011;21192;40.182;44.516;2022-09-20T18:14:13;28.50;;;8.48;;
34988;SDS011;21192;40.182;44.516;2022-09-20T18:16:40;25.17;;;8.85;;
34988;SDS011;21192;40.182;44.516;2022-09-20T18:19:08;25.63;;;9.75;;
34988;SDS011;21192;40.182;44.516;2022-09-20T18:21:35;33.50;;;10.55;;
34988;SDS011;21192;40.182;44.516;2022-09-20T18:24:06;30.40;;;9.90;;
34988;SDS011;21192;40.182;44.516;2022-09-20T18:26:33;32.35;;;10.25;;
34988;SDS011;21192;40.182;44.516;2022-09-20T18:29:04;31.52;;;10.70;;
34988;SDS011;21192;40.182;44.516;2022-09-20T18:31:47;33.55;;;10.07;;
34988;SDS011;21192;40.182;44.516;2022-09-20T18:34:19;25.60;;;8.50;;
34988;SDS011;21192;40.182;44.516;2022-09-20T18:36:50;26.00;;;10.40;;
34988;SDS011;21192;40.182;44.516;2022-09-20T18:39:21;28.05;;;10.23;;
34988;SDS011;21192;40.182;44.516;2022-09-20T18:41:49;27.58;;;9.52;;
34988;SDS011;21192;40.182;44.516;2022-09-20T18:44:17;23.15;;;9.88;;
34988;SDS011;21192;40.182;44.516;2022-09-20T18:46:44;24.00;;;9.30;;
34988;SDS011;21192;40.182;44.516;2022-09-20T18:49:10;31.50;;;10.65;;
34988;SDS011;21192;40.182;44.516;2022-09-20T18:51:38;29.63;;;9.23;;
34988;SDS011;21192;40.182;44.516;2022-09-20T18:54:04;26.42;;;11.30;;
34988;SDS011;21192;40.182;44.516;2022-09-20T18:56:33;27.77;;;10.90;;
34988;SDS011;21192;40.182;44.516;2022-09-20T18:59:05;29.42;;;14.27;;
34988;SDS011;21192;40.182;44.516;2022-09-20T19:01:42;26.65;;;11.88;;
34988;SDS011;21192;40.182;44.516;2022-09-20T19:12:36;28.27;;;8.90;;
34988;SDS011;21192;40.182;44.516;2022-09-20T19:26:27;33.55;;;11.57;;
34988;SDS011;21192;40.182;44.516;2022-09-20T19:28:57;29.52;;;9.30;;
34988;SDS011;21192;40.182;44.516;2022-09-20T19:31:31;22.52;;;8.65;;
34988;SDS011;21192;40.182;44.516;2022-09-20T19:34:03;27.23;;;12.10;;
34988;SDS011;21192;40.182;44.516;2022-09-20T19:39:25;34.78;;;11.25;;
34988;SDS011;21192;40.182;44.516;2022-09-20T19:42:05;29.60;;;7.55;;
34988;SDS011;21192;40.182;44.516;2022-09-20T19:44:49;25.35;;;7.93;;
34988;SDS011;21192;40.182;44.516;2022-09-20T19:50:39;23.55;;;6.68;;
34988;SDS011;21192;40.182;44.516;2022-09-20T19:53:11;18.90;;;6.10;;
34988;SDS011;21192;40.182;44.516;2022-09-20T19:55:38;24.92;;;6.78;;
34988;SDS011;21192;40.182;44.516;2022-09-20T19:58:11;20.23;;;7.38;;
34988;SDS011;21192;40.182;44.516;2022-09-20T20:00:37;23.58;;;7.90;;
34988;SDS011;21192;40.182;44.516;2022-09-20T20:03:04;19.33;;;7.25;;
34988;SDS011;21192;40.182;44.516;2022-09-20T20:05:30;28.30;;;6.13;;
34988;SDS011;21192;40.182;44.516;2022-09-20T20:08:10;16.33;;;5.53;;
34988;SDS011;21192;40.182;44.516;2022-09-20T20:16:19;17.05;;;5.68;;
34988;SDS011;21192;40.182;44.516;2022-09-20T20:24:24;20.85;;;6.55;;
34988;SDS011;21192;40.182;44.516;2022-09-20T20:27:12;18.90;;;6.95;;
34988;SDS011;21192;40.182;44.516;2022-09-20T20:29:38;23.17;;;7.25;;
34988;SDS011;21192;40.182;44.516;2022-09-20T20:32:04;19.48;;;5.60;;
34988;SDS011;21192;40.182;44.516;2022-09-20T20:34:29;18.05;;;6.05;;
34988;SDS011;21192;40.182;44.516;2022-09-20T20:36:55;16.42;;;5.63;;
34988;SDS011;21192;40.182;44.516;2022-09-20T20:39:27;17.42;;;6.15;;
34988;SDS011;21192;40.182;44.516;2022-09-20T20:41:55;22.20;;;5.88;;
34988;SDS011;21192;40.182;44.516;2022-09-20T20:44:25;16.63;;;6.00;;
34988;SDS011;21192;40.182;44.516;2022-09-20T20:46:52;16.17;;;6.13;;
34988;SDS011;21192;40.182;44.516;2022-09-20T20:49:18;16.40;;;6.38;;
34988;SDS011;21192;40.182;44.516;2022-09-20T20:51:44;15.50;;;5.65;;
34988;SDS011;21192;40.182;44.516;2022-09-20T20:54:11;17.88;;;6.35;;
34988;SDS011;21192;40.182;44.516;2022-09-20T20:56:37;24.52;;;9.18;;
34988;SDS011;21192;40.182;44.516;2022-09-20T20:59:03;23.92;;;7.07;;
34988;SDS011;21192;40.182;44.516;2022-09-20T21:01:31;18.92;;;5.93;;
34988;SDS011;21192;40.182;44.516;2022-09-20T21:04:07;19.33;;;7.03;;
34988;SDS011;21192;40.182;44.516;2022-09-20T21:06:34;21.92;;;6.65;;
34988;SDS011;21192;40.182;44.516;2022-09-20T21:09:00;22.33;;;5.82;;
34988;SDS011;21192;40.182;44.516;2022-09-20T21:11:29;17.48;;;5.53;;
34988;SDS011;21192;40.182;44.516;2022-09-20T21:13:58;15.75;;;5.60;;
34988;SDS011;21192;40.182;44.516;2022-09-20T21:16:29;22.30;;;5.85;;
34988;SDS011;21192;40.182;44.516;2022-09-20T21:18:57;18.77;;;5.68;;
34988;SDS011;21192;40.182;44.516;2022-09-20T21:21:30;18.60;;;5.50;;
34988;SDS011;21192;40.182;44.516;2022-09-20T21:24:00;21.15;;;8.35;;
34988;SDS011;21192;40.182;44.516;2022-09-20T21:26:29;16.08;;;5.38;;
34988;SDS011;21192;40.182;44.516;2022-09-20T21:28:57;20.98;;;5.88;;
34988;SDS011;21192;40.182;44.516;2022-09-20T21:31:25;21.10;;;6.10;;
34988;SDS011;21192;40.182;44.516;2022-09-20T21:33:53;17.75;;;6.45;;
34988;SDS011;21192;40.182;44.516;2022-09-20T21:36:23;22.27;;;5.40;;
34988;SDS011;21192;40.182;44.516;2022-09-20T21:38:49;15.40;;;4.30;;
34988;SDS011;21192;40.182;44.516;2022-09-20T21:41:25;19.73;;;5.35;;
34988;SDS011;21192;40.182;44.516;2022-09-20T21:43:58;16.73;;;6.40;;
34988;SDS011;21192;40.182;44.516;2022-09-20T21:46:30;14.98;;;5.43;;
34988;SDS011;21192;40.182;44.516;2022-09-20T21:48:59;16.52;;;6.30;;
34988;SDS011;21192;40.182;44.516;2022-09-20T21:51:28;21.83;;;7.32;;
34988;SDS011;21192;40.182;44.516;2022-09-20T21:53:54;12.75;;;5.65;;
34988;SDS011;21192;40.182;44.516;2022-09-20T21:56:22;18.88;;;5.97;;
34988;SDS011;21192;40.182;44.516;2022-09-20T21:58:49;22.23;;;5.68;;
34988;SDS011;21192;40.182;44.516;2022-09-20T22:01:16;15.57;;;5.15;;
34988;SDS011;21192;40.182;44.516;2022-09-20T22:03:44;16.23;;;4.50;;
34988;SDS011;21192;40.182;44.516;2022-09-20T22:06:12;22.35;;;4.93;;
34988;SDS011;21192;40.182;44.516;2022-09-20T22:08:46;21.67;;;4.63;;
34988;SDS011;21192;40.182;44.516;2022-09-20T22:11:20;14.85;;;4.68;;
34988;SDS011;21192;40.182;44.516;2022-09-20T22:13:48;16.30;;;4.05;;
34988;SDS011;21192;40.182;44.516;2022-09-20T22:16:19;12.30;;;4.20;;
34988;SDS011;21192;40.182;44.516;2022-09-20T22:18:47;15.82;;;4.38;;
34988;SDS011;21192;40.182;44.516;2022-09-20T22:23:47;12.93;;;4.35;;
34988;SDS011;21192;40.182;44.516;2022-09-20T22:26:15;14.55;;;4.82;;
34988;SDS011;21192;40.182;44.516;2022-09-20T22:28:42;12.90;;;4.85;;
34988;SDS011;21192;40.182;44.516;2022-09-20T22:33:39;14.40;;;5.00;;
34988;SDS011;21192;40.182;44.516;2022-09-20T22:36:07;12.75;;;4.80;;
34988;SDS011;21192;40.182;44.516;2022-09-20T22:38:34;12.50;;;4.53;;
34988;SDS011;21192;40.182;44.516;2022-09-20T22:40:59;15.82;;;4.85;;
34988;SDS011;21192;40.182;44.516;2022-09-20T22:43:26;13.73;;;5.13;;
34988;SDS011;21192;40.182;44.516;2022-09-20T22:45:52;14.38;;;5.72;;
34988;SDS011;21192;40.182;44.516;2022-09-20T22:48:18;12.95;;;5.22;;
34988;SDS011;21192;40.182;44.516;2022-09-20T22:50:44;17.35;;;5.50;;
34988;SDS011;21192;40.182;44.516;2022-09-20T22:53:10;14.88;;;4.35;;
34988;SDS011;21192;40.182;44.516;2022-09-20T22:55:36;18.15;;;4.88;;
34988;SDS011;21192;40.182;44.516;2022-09-20T22:58:02;15.32;;;5.05;;
34988;SDS011;21192;40.182;44.516;2022-09-20T23:00:28;17.17;;;5.00;;
34988;SDS011;21192;40.182;44.516;2022-09-20T23:02:57;17.52;;;7.32;;
34988;SDS011;21192;40.182;44.516;2022-09-20T23:05:24;15.35;;;6.00;;
34988;SDS011;21192;40.182;44.516;2022-09-20T23:07:50;12.93;;;5.78;;
34988;SDS011;21192;40.182;44.516;2022-09-20T23:10:16;14.18;;;4.10;;
34988;SDS011;21192;40.182;44.516;2022-09-20T23:12:42;16.98;;;5.10;;
34988;SDS011;21192;40.182;44.516;2022-09-20T23:15:08;19.17;;;6.13;;
34988;SDS011;21192;40.182;44.516;2022-09-20T23:17:36;15.20;;;4.97;;
34988;SDS011;21192;40.182;44.516;2022-09-20T23:20:06;14.95;;;4.40;;
34988;SDS011;21192;40.182;44.516;2022-09-20T23:22:32;16.35;;;5.97;;